createdAt,value
2018-11-26T00:00:29.616Z,72.10
2018-11-26T00:01:29.610Z,83.20
2018-11-26T00:02:29.593Z,82.90
2018-11-26T00:03:29.589Z,90.10
2018-11-26T00:04:29.580Z,87.40
2018-11-26T00:05:29.573Z,87.20
2018-11-26T00:06:29.605Z,91.00
2018-11-26T00:07:29.552Z,88.70
2018-11-26T00:08:29.543Z,82.30
2018-11-26T00:09:29.545Z,93.00
2018-11-26T00:10:29.525Z,85.40
2018-11-26T00:11:29.516Z,87.10
2018-11-26T00:12:29.510Z,98.20
2018-11-26T00:13:29.500Z,89.90
2018-11-26T00:14:29.494Z,90.00
2018-11-26T00:15:29.486Z,97.10
2018-11-26T00:16:29.478Z,98.90
2018-11-26T00:17:29.466Z,97.20
2018-11-26T00:18:29.455Z,101.70
2018-11-26T00:19:29.449Z,105.80
2018-11-26T00:20:29.453Z,112.80
2018-11-26T00:21:29.433Z,103.00
2018-11-26T00:22:29.424Z,102.30
2018-11-26T00:23:29.418Z,108.20
2018-11-26T00:24:29.407Z,117.20
2018-11-26T00:25:29.399Z,106.30
2018-11-26T00:26:29.388Z,99.10
2018-11-26T00:27:29.382Z,91.10
2018-11-26T00:28:29.374Z,107.80
2018-11-26T00:29:29.362Z,120.60
2018-11-26T00:30:29.355Z,108.40
2018-11-26T00:31:29.346Z,105.90
2018-11-26T00:32:29.339Z,115.20
2018-11-26T00:33:29.331Z,115.90
2018-11-26T00:34:29.325Z,118.40
2018-11-26T00:35:29.313Z,105.20
2018-11-26T00:36:29.303Z,117.20
2018-11-26T00:37:29.296Z,105.70
2018-11-26T00:38:29.288Z,113.60
2018-11-26T00:39:29.279Z,129.10
2018-11-26T00:40:29.268Z,123.70
2018-11-26T00:41:29.262Z,106.50
2018-11-26T00:42:29.253Z,125.70
2018-11-26T00:43:29.244Z,124.90
2018-11-26T00:44:29.239Z,120.80
2018-11-26T00:45:29.228Z,127.10
2018-11-26T00:46:29.219Z,123.90
2018-11-26T00:47:29.212Z,126.70
2018-11-26T00:48:29.202Z,143.40
2018-11-26T00:49:29.195Z,136.60
2018-11-26T00:50:29.183Z,127.10
2018-11-26T00:51:29.197Z,128.60
2018-11-26T00:52:29.171Z,115.70
2018-11-26T00:53:29.166Z,119.40
2018-11-26T00:54:29.149Z,121.30
2018-11-26T00:55:29.142Z,138.30
2018-11-26T00:56:29.137Z,123.70
2018-11-26T00:57:29.129Z,119.30
2018-11-26T00:58:29.121Z,135.40
2018-11-26T00:59:29.114Z,129.00
2018-11-26T01:00:29.098Z,134.20
2018-11-26T01:01:29.090Z,157.40
2018-11-26T01:02:29.079Z,162.60
2018-11-26T01:03:29.072Z,141.20
2018-11-26T01:04:29.065Z,129.00
2018-11-26T01:05:29.056Z,136.20
2018-11-26T01:06:29.049Z,131.50
2018-11-26T01:07:29.037Z,138.60
2018-11-26T01:08:29.032Z,157.40
2018-11-26T01:09:29.017Z,149.70
2018-11-26T01:10:29.010Z,141.60
2018-11-26T01:11:29.001Z,149.30
2018-11-26T01:12:28.992Z,150.60
2018-11-26T01:13:28.985Z,140.50
2018-11-26T01:14:28.977Z,155.80
2018-11-26T01:15:28.965Z,159.40
2018-11-26T01:16:28.958Z,143.00
2018-11-26T01:17:28.947Z,153.50
2018-11-26T01:18:28.949Z,170.20
2018-11-26T01:19:28.930Z,171.30
2018-11-26T01:20:28.924Z,178.70
2018-11-26T01:21:28.915Z,148.70
2018-11-26T01:22:28.905Z,145.40
2018-11-26T01:23:28.895Z,155.50
2018-11-26T01:24:28.886Z,159.50
2018-11-26T01:25:28.917Z,161.90
2018-11-26T01:26:28.866Z,177.70
2018-11-26T01:27:28.861Z,186.50
2018-11-26T01:28:28.850Z,167.00
2018-11-26T01:29:28.844Z,157.80
2018-11-26T01:30:28.834Z,164.00
2018-11-26T01:31:28.825Z,157.60
2018-11-26T01:32:28.816Z,158.10
2018-11-26T01:33:28.808Z,157.00
2018-11-26T01:34:28.801Z,182.80
2018-11-26T01:35:28.790Z,186.40
2018-11-26T01:36:28.784Z,167.50
2018-11-26T01:37:28.774Z,157.40
2018-11-26T01:38:28.764Z,170.10
2018-11-26T01:39:28.753Z,161.90
2018-11-26T01:40:28.745Z,161.90
2018-11-26T01:41:28.740Z,164.90
2018-11-26T01:42:28.728Z,166.20
2018-11-26T01:43:28.720Z,178.30
2018-11-26T01:44:28.712Z,160.30
2018-11-26T01:45:28.702Z,173.40
2018-11-26T01:46:28.693Z,160.30
2018-11-26T01:47:28.683Z,193.80
2018-11-26T01:48:28.676Z,185.40
2018-11-26T01:49:28.666Z,172.00
2018-11-26T01:50:28.661Z,154.10
2018-11-26T01:51:28.649Z,156.10
2018-11-26T01:52:28.639Z,154.80
2018-11-26T01:53:28.633Z,183.30
2018-11-26T01:54:28.622Z,170.50
2018-11-26T01:55:28.618Z,178.00
2018-11-26T01:56:28.603Z,165.90
2018-11-26T01:57:28.597Z,200.20
2018-11-26T01:58:28.590Z,195.40
2018-11-26T01:59:28.578Z,195.60
2018-11-26T02:00:28.569Z,180.30
2018-11-26T02:01:28.559Z,183.70
2018-11-26T02:02:28.549Z,174.40
2018-11-26T02:03:28.544Z,172.50
2018-11-26T02:04:28.536Z,179.00
2018-11-26T02:05:28.526Z,181.30
2018-11-26T02:06:28.521Z,172.10
2018-11-26T02:07:28.512Z,166.00
2018-11-26T02:08:28.497Z,183.40
2018-11-26T02:09:28.490Z,177.90
2018-11-26T02:10:28.488Z,149.80
2018-11-26T02:11:28.469Z,195.10
2018-11-26T02:12:28.468Z,205.60
2018-11-26T02:13:28.458Z,163.30
2018-11-26T02:14:28.444Z,186.60
2018-11-26T02:15:28.435Z,177.30
2018-11-26T02:16:28.422Z,186.50
2018-11-26T02:17:28.418Z,206.10
2018-11-26T02:18:28.409Z,228.40
2018-11-26T02:19:28.405Z,193.20
2018-11-26T02:20:28.392Z,210.40
2018-11-26T02:21:28.381Z,214.90
2018-11-26T02:22:28.372Z,232.30
2018-11-26T02:23:28.363Z,243.00
2018-11-26T02:24:28.354Z,188.20
2018-11-26T02:25:28.346Z,208.30
2018-11-26T02:26:28.338Z,218.80
2018-11-26T02:27:28.328Z,182.30
2018-11-26T02:28:28.319Z,213.40
2018-11-26T02:29:28.309Z,213.50
2018-11-26T02:30:28.299Z,216.10
2018-11-26T02:31:28.292Z,203.20
2018-11-26T02:32:28.278Z,203.30
2018-11-26T02:33:28.273Z,189.70
2018-11-26T02:34:28.263Z,218.90
2018-11-26T02:35:28.253Z,228.20
2018-11-26T02:36:28.257Z,200.20
2018-11-26T02:37:28.234Z,213.50
2018-11-26T02:38:28.226Z,222.70
2018-11-26T02:39:28.219Z,234.90
2018-11-26T02:40:28.208Z,222.10
2018-11-26T02:41:28.201Z,213.70
2018-11-26T02:42:28.193Z,198.40
2018-11-26T02:43:28.182Z,210.00
2018-11-26T02:44:28.174Z,195.60
2018-11-26T02:45:28.163Z,208.90
2018-11-26T02:46:28.157Z,209.60
2018-11-26T02:47:28.145Z,204.40
2018-11-26T02:48:28.137Z,220.40
2018-11-26T02:49:28.129Z,222.30
2018-11-26T02:50:28.119Z,200.80
2018-11-26T02:51:28.110Z,186.50
2018-11-26T02:52:28.123Z,189.40
2018-11-26T02:53:28.099Z,186.50
2018-11-26T02:54:28.083Z,174.40
2018-11-26T02:55:28.072Z,179.60
2018-11-26T02:56:28.065Z,190.40
2018-11-26T02:57:28.056Z,197.20
2018-11-26T02:58:28.047Z,191.60
2018-11-26T02:59:28.045Z,219.20
2018-11-26T03:00:28.031Z,200.70
2018-11-26T03:01:28.026Z,193.50
2018-11-26T03:02:28.011Z,201.10
2018-11-26T03:03:28.005Z,193.50
2018-11-26T03:04:27.995Z,200.80
2018-11-26T03:05:27.987Z,211.40
2018-11-26T03:06:27.976Z,216.70
2018-11-26T03:07:27.968Z,189.50
2018-11-26T03:08:27.956Z,190.10
2018-11-26T03:09:27.949Z,188.50
2018-11-26T03:10:27.952Z,181.30
2018-11-26T03:11:27.933Z,171.70
2018-11-26T03:12:27.924Z,167.70
2018-11-26T03:13:27.914Z,152.30
2018-11-26T03:14:27.904Z,153.50
2018-11-26T03:15:27.896Z,140.80
2018-11-26T03:16:27.898Z,138.90
2018-11-26T03:17:27.883Z,140.80
2018-11-26T03:18:28.545Z,137.50
2018-11-26T03:19:27.862Z,134.50
2018-11-26T03:20:27.853Z,148.50
2018-11-26T03:21:27.842Z,155.40
2018-11-26T03:22:27.834Z,142.60
2018-11-26T03:23:27.827Z,145.00
2018-11-26T03:24:27.816Z,134.80
2018-11-26T03:25:27.810Z,140.10
2018-11-26T03:26:27.799Z,140.30
2018-11-26T03:27:27.786Z,121.10
2018-11-26T03:28:27.794Z,110.90
2018-11-26T03:29:27.808Z,111.30
2018-11-26T03:30:27.771Z,114.70
2018-11-26T03:31:27.757Z,109.80
2018-11-26T03:32:27.745Z,114.30
2018-11-26T03:33:27.737Z,108.30
2018-11-26T03:34:27.725Z,102.20
2018-11-26T03:35:27.719Z,100.10
2018-11-26T03:36:27.711Z,110.70
2018-11-26T03:37:27.706Z,92.80
2018-11-26T03:38:27.693Z,91.00
2018-11-26T03:39:27.684Z,95.60
2018-11-26T03:40:27.673Z,91.80
2018-11-26T03:41:27.668Z,98.40
2018-11-26T03:42:27.658Z,93.40
2018-11-26T03:43:27.646Z,93.50
2018-11-26T03:44:27.644Z,86.30
2018-11-26T03:45:27.642Z,89.20
2018-11-26T03:46:27.628Z,98.00
2018-11-26T03:47:27.612Z,87.00
2018-11-26T03:48:27.605Z,89.50
2018-11-26T03:49:27.621Z,88.90
2018-11-26T03:50:27.586Z,89.00
2018-11-26T03:51:27.577Z,88.80
2018-11-26T03:52:27.565Z,89.40
2018-11-26T03:53:27.558Z,83.20
2018-11-26T03:54:27.549Z,87.80
2018-11-26T03:55:27.548Z,83.20
2018-11-26T03:56:27.534Z,82.10
2018-11-26T03:57:27.523Z,86.20
2018-11-26T03:58:27.517Z,88.50
2018-11-26T03:59:27.505Z,90.10
2018-11-26T04:00:27.497Z,89.40
2018-11-26T04:01:27.529Z,84.20
2018-11-26T04:02:27.478Z,82.50
2018-11-26T04:03:27.469Z,74.40
2018-11-26T04:04:27.460Z,77.40
2018-11-26T04:05:27.452Z,78.30
2018-11-26T04:06:27.443Z,79.50
2018-11-26T04:07:27.436Z,77.80
2018-11-26T04:08:27.426Z,80.30
2018-11-26T04:09:27.417Z,74.70
2018-11-26T04:10:27.405Z,71.00
2018-11-26T04:11:27.399Z,77.20
2018-11-26T04:12:27.403Z,71.60
2018-11-26T04:13:27.387Z,74.10
2018-11-26T04:14:27.372Z,78.50
2018-11-26T04:15:27.359Z,75.40
2018-11-26T04:16:27.357Z,73.20
2018-11-26T04:17:27.344Z,81.40
2018-11-26T04:18:41.956Z,80.10
2018-11-26T04:19:27.328Z,78.40
2018-11-26T04:20:27.323Z,79.50
2018-11-26T04:21:27.311Z,73.50
2018-11-26T04:22:27.309Z,74.20
2018-11-26T04:23:27.291Z,83.30
2018-11-26T04:24:27.283Z,76.90
2018-11-26T04:25:27.281Z,76.20
2018-11-26T04:26:27.265Z,70.20
2018-11-26T04:27:27.257Z,64.50
2018-11-26T04:28:27.249Z,72.50
2018-11-26T04:29:27.238Z,67.30
2018-11-26T04:30:27.235Z,80.10
2018-11-26T04:31:27.224Z,72.60
2018-11-26T04:32:27.212Z,71.70
2018-11-26T04:33:27.207Z,76.40
2018-11-26T04:34:27.193Z,69.60
2018-11-26T04:35:27.186Z,70.80
2018-11-26T04:36:27.180Z,64.20
2018-11-26T04:37:27.168Z,66.00
2018-11-26T04:38:27.170Z,66.90
2018-11-26T04:39:27.151Z,70.60
2018-11-26T04:40:27.140Z,66.80
2018-11-26T04:41:27.133Z,67.30
2018-11-26T04:42:27.125Z,62.40
2018-11-26T04:43:27.117Z,73.40
2018-11-26T04:44:27.102Z,71.00
2018-11-26T04:45:27.095Z,71.40
2018-11-26T04:46:27.088Z,71.40
2018-11-26T04:47:27.084Z,69.30
2018-11-26T04:48:27.071Z,71.50
2018-11-26T04:49:27.100Z,64.80
2018-11-26T04:50:27.050Z,73.50
2018-11-26T04:51:27.044Z,74.10
2018-11-26T04:52:27.035Z,67.40
2018-11-26T04:53:27.026Z,73.60
2018-11-26T04:54:27.018Z,70.70
2018-11-26T04:55:27.011Z,69.90
2018-11-26T04:56:27.001Z,71.00
2018-11-26T04:57:26.991Z,67.30
2018-11-26T04:58:26.981Z,70.50
2018-11-26T04:59:26.975Z,66.90
2018-11-26T05:00:26.967Z,72.70
2018-11-26T05:01:26.958Z,67.50
2018-11-26T05:02:26.948Z,62.00
2018-11-26T05:03:26.939Z,66.40
2018-11-26T05:04:26.930Z,63.10
2018-11-26T05:05:28.155Z,63.80
2018-11-26T05:06:26.916Z,67.60
2018-11-26T05:07:26.907Z,62.10
2018-11-26T05:08:26.898Z,57.80
2018-11-26T05:09:26.913Z,61.50
2018-11-26T05:10:26.884Z,64.40
2018-11-26T05:11:26.871Z,56.50
2018-11-26T05:12:26.865Z,63.60
2018-11-26T05:13:26.859Z,69.10
2018-11-26T05:14:26.849Z,62.90
2018-11-26T05:15:26.842Z,66.60
2018-11-26T05:16:26.828Z,63.00
2018-11-26T05:17:26.818Z,74.20
2018-11-26T05:18:26.809Z,73.20
2018-11-26T05:19:26.802Z,67.00
2018-11-26T05:20:26.794Z,71.10
2018-11-26T05:21:26.787Z,67.90
2018-11-26T05:22:26.777Z,64.40
2018-11-26T05:23:26.768Z,74.00
2018-11-26T05:24:26.758Z,67.80
2018-11-26T05:25:26.752Z,76.00
2018-11-26T05:26:26.741Z,74.70
2018-11-26T05:27:26.736Z,73.40
2018-11-26T05:28:26.727Z,62.10
2018-11-26T05:29:26.716Z,67.30
2018-11-26T05:30:26.709Z,65.30
2018-11-26T05:31:26.704Z,71.70
2018-11-26T05:32:26.690Z,63.50
2018-11-26T05:33:26.682Z,60.50
2018-11-26T05:34:26.672Z,69.40
2018-11-26T05:35:26.667Z,67.60
2018-11-26T05:36:26.665Z,68.60
2018-11-26T05:37:26.649Z,69.90
2018-11-26T05:38:26.641Z,68.90
2018-11-26T05:39:26.630Z,67.40
2018-11-26T05:40:26.621Z,72.90
2018-11-26T05:41:26.614Z,67.90
2018-11-26T05:42:28.776Z,71.00
2018-11-26T05:43:26.594Z,76.90
2018-11-26T05:44:26.588Z,72.90
2018-11-26T05:45:26.579Z,81.10
2018-11-26T05:46:26.569Z,77.80
2018-11-26T05:47:26.562Z,69.90
2018-11-26T05:48:26.554Z,73.70
2018-11-26T05:49:26.549Z,70.30
2018-11-26T05:50:26.538Z,67.60
2018-11-26T05:51:26.528Z,72.90
2018-11-26T05:52:26.521Z,71.20
2018-11-26T05:53:26.512Z,69.90
2018-11-26T05:54:26.506Z,71.50
2018-11-26T05:55:26.496Z,67.30
2018-11-26T05:56:26.503Z,80.70
2018-11-26T05:57:26.480Z,69.80
2018-11-26T05:58:26.468Z,70.80
2018-11-26T05:59:26.467Z,63.80
2018-11-26T06:00:26.455Z,72.10
2018-11-26T06:01:26.444Z,61.70
2018-11-26T06:02:26.435Z,66.60
2018-11-26T06:03:26.429Z,74.70
2018-11-26T06:04:26.418Z,73.20
2018-11-26T06:05:26.407Z,67.30
2018-11-26T06:06:26.403Z,72.50
2018-11-26T06:07:26.393Z,75.90
2018-11-26T06:08:26.386Z,67.00
2018-11-26T06:09:26.385Z,60.60
2018-11-26T06:10:26.365Z,57.60
2018-11-26T06:11:26.361Z,56.50
2018-11-26T06:12:26.354Z,58.90
2018-11-26T06:13:26.342Z,64.60
2018-11-26T06:14:26.333Z,62.60
2018-11-26T06:15:26.324Z,61.70
2018-11-26T06:16:26.317Z,56.90
2018-11-26T06:17:26.309Z,51.50
2018-11-26T06:18:26.297Z,47.70
2018-11-26T06:19:26.289Z,63.50
2018-11-26T06:20:26.281Z,57.20
2018-11-26T06:21:26.289Z,47.20
2018-11-26T06:22:26.268Z,48.80
2018-11-26T06:23:26.256Z,46.50
2018-11-26T06:24:26.243Z,50.20
2018-11-26T06:25:26.237Z,52.00
2018-11-26T06:26:26.228Z,54.80
2018-11-26T06:27:26.218Z,51.80
2018-11-26T06:28:26.210Z,59.30
2018-11-26T06:29:26.203Z,49.00
2018-11-26T06:30:26.191Z,59.80
2018-11-26T06:31:26.188Z,61.30
2018-11-26T06:32:26.173Z,65.40
2018-11-26T06:33:26.184Z,70.90
2018-11-26T06:34:26.158Z,65.90
2018-11-26T06:35:26.147Z,66.60
2018-11-26T06:36:26.138Z,64.00
2018-11-26T06:37:26.129Z,65.50
2018-11-26T06:38:26.122Z,70.40
2018-11-26T06:39:26.115Z,63.00
2018-11-26T06:40:26.101Z,71.50
2018-11-26T06:41:26.090Z,75.90
2018-11-26T06:42:26.080Z,70.70
2018-11-26T06:43:26.073Z,81.00
2018-11-26T06:44:26.065Z,73.50
2018-11-26T06:45:26.057Z,76.70
2018-11-26T06:46:26.048Z,69.90
2018-11-26T06:47:26.036Z,77.70
2018-11-26T06:48:26.025Z,73.40
2018-11-26T06:49:26.021Z,64.20
2018-11-26T06:50:26.010Z,61.50
2018-11-26T06:51:25.994Z,65.60
2018-11-26T06:52:25.991Z,67.40
2018-11-26T06:53:25.988Z,70.60
2018-11-26T06:54:25.975Z,67.90
2018-11-26T06:55:25.960Z,55.90
2018-11-26T06:56:25.950Z,61.90
2018-11-26T06:57:25.942Z,62.50
2018-11-26T06:58:25.935Z,62.30
2018-11-26T06:59:25.924Z,64.00
2018-11-26T07:00:25.915Z,56.00
2018-11-26T07:01:25.908Z,61.20
2018-11-26T07:02:25.901Z,56.30
2018-11-26T07:03:25.885Z,63.10
2018-11-26T07:04:25.876Z,59.50
2018-11-26T07:05:25.867Z,64.80
2018-11-26T07:06:25.856Z,58.50
2018-11-26T07:07:25.847Z,59.30
2018-11-26T07:08:25.839Z,58.70
2018-11-26T07:09:25.831Z,54.20
2018-11-26T07:10:25.818Z,62.80
2018-11-26T07:11:25.809Z,55.90
2018-11-26T07:12:25.798Z,54.50
2018-11-26T07:13:25.805Z,60.30
2018-11-26T07:14:25.782Z,66.10
2018-11-26T07:15:25.774Z,68.90
2018-11-26T07:16:25.869Z,65.30
2018-11-26T07:17:25.754Z,68.70
2018-11-26T07:18:25.744Z,70.30
2018-11-26T07:19:25.736Z,61.30
2018-11-26T07:20:25.723Z,63.70
2018-11-26T07:21:25.716Z,64.70
2018-11-26T07:22:25.705Z,71.20
2018-11-26T07:23:25.700Z,65.10
2018-11-26T07:24:25.692Z,66.90
2018-11-26T07:25:25.678Z,68.60
2018-11-26T07:26:25.669Z,76.30
2018-11-26T07:27:25.855Z,67.20
2018-11-26T07:28:25.816Z,71.80
2018-11-26T07:29:25.647Z,79.20
2018-11-26T07:30:25.631Z,85.20
2018-11-26T07:31:26.471Z,75.70
2018-11-26T07:32:25.614Z,69.40
2018-11-26T07:33:25.604Z,90.10
2018-11-26T07:34:25.597Z,94.50
2018-11-26T07:35:25.588Z,84.60
2018-11-26T07:36:25.590Z,90.70
2018-11-26T07:37:25.565Z,80.70
2018-11-26T07:38:25.581Z,90.60
2018-11-26T07:39:25.546Z,97.00
2018-11-26T07:40:25.539Z,97.20
2018-11-26T07:41:25.529Z,94.20
2018-11-26T07:42:25.770Z,94.00
2018-11-26T07:43:25.519Z,95.00
2018-11-26T07:44:25.497Z,90.70
2018-11-26T07:45:25.492Z,97.60
2018-11-26T07:46:25.481Z,102.60
2018-11-26T07:47:25.488Z,103.70
2018-11-26T07:48:25.458Z,106.80
2018-11-26T07:49:25.458Z,101.40
2018-11-26T07:50:25.438Z,108.00
2018-11-26T07:51:25.434Z,101.20
2018-11-26T07:52:25.671Z,118.30
2018-11-26T07:53:25.417Z,117.70
2018-11-26T07:54:25.405Z,115.60
2018-11-26T07:55:25.419Z,111.00
2018-11-26T07:56:25.384Z,116.90
2018-11-26T07:57:25.374Z,133.40
2018-11-26T07:58:26.663Z,131.80
2018-11-26T07:59:26.699Z,125.60
2018-11-26T08:00:25.347Z,129.60
2018-11-26T08:01:25.337Z,107.80
2018-11-26T08:02:25.326Z,128.40
2018-11-26T08:03:25.324Z,116.40
2018-11-26T08:04:25.309Z,118.70
2018-11-26T08:05:25.300Z,129.30
2018-11-26T08:06:25.290Z,128.40
2018-11-26T08:07:25.283Z,118.10
2018-11-26T08:08:25.273Z,110.60
2018-11-26T08:09:25.263Z,97.40
2018-11-26T08:10:25.292Z,111.60
2018-11-26T08:11:25.240Z,117.70
2018-11-26T08:12:25.230Z,110.30
2018-11-26T08:13:25.223Z,117.50
2018-11-26T08:14:25.213Z,114.30
2018-11-26T08:15:25.203Z,127.30
2018-11-26T08:16:25.194Z,116.70
2018-11-26T08:17:25.186Z,113.10
2018-11-26T08:18:25.174Z,119.50
2018-11-26T08:19:25.166Z,108.90
2018-11-26T08:20:25.158Z,93.20
2018-11-26T08:21:25.147Z,103.20
2018-11-26T08:22:25.134Z,113.40
2018-11-26T08:23:25.128Z,116.00
2018-11-26T08:24:25.119Z,123.60
2018-11-26T08:25:25.111Z,106.70
2018-11-26T08:26:25.097Z,105.30
2018-11-26T08:27:25.089Z,111.40
2018-11-26T08:28:25.081Z,122.90
2018-11-26T08:29:25.072Z,104.20
2018-11-26T08:30:25.067Z,115.80
2018-11-26T08:31:25.051Z,117.30
2018-11-26T08:32:25.039Z,122.30
2018-11-26T08:33:25.032Z,114.10
2018-11-26T08:34:25.023Z,107.60
2018-11-26T08:35:25.016Z,114.30
2018-11-26T08:36:25.004Z,124.30
2018-11-26T08:37:24.993Z,119.90
2018-11-26T08:38:24.983Z,136.50
2018-11-26T08:39:24.972Z,119.10
2018-11-26T08:40:24.965Z,124.20
2018-11-26T08:41:24.976Z,109.20
2018-11-26T08:42:24.945Z,109.90
2018-11-26T08:43:24.935Z,113.60
2018-11-26T08:44:24.929Z,120.70
2018-11-26T08:45:24.919Z,125.60
2018-11-26T08:46:24.909Z,127.80
2018-11-26T08:47:24.892Z,125.20
2018-11-26T08:48:24.886Z,119.70
2018-11-26T08:49:24.879Z,132.80
2018-11-26T08:50:24.869Z,134.80
2018-11-26T08:51:24.858Z,128.40
2018-11-26T08:52:24.847Z,128.80
2018-11-26T08:53:24.840Z,120.50
2018-11-26T08:54:24.860Z,115.10
2018-11-26T08:55:24.819Z,127.80
2018-11-26T08:56:24.875Z,131.60
2018-11-26T08:57:24.799Z,122.80
2018-11-26T08:58:24.795Z,127.00
2018-11-26T08:59:24.780Z,136.30
2018-11-26T09:00:24.770Z,109.30
2018-11-26T09:01:24.795Z,117.50
2018-11-26T09:02:24.752Z,130.10
2018-11-26T09:03:24.742Z,124.60
2018-11-26T09:04:24.732Z,120.30
2018-11-26T09:05:24.724Z,132.20
2018-11-26T09:06:24.713Z,112.30
2018-11-26T09:07:24.704Z,107.70
2018-11-26T09:08:24.695Z,110.50
2018-11-26T09:09:24.712Z,111.90
2018-11-26T09:10:24.673Z,124.60
2018-11-26T09:11:24.665Z,128.70
2018-11-26T09:12:24.659Z,118.90
2018-11-26T09:13:24.646Z,130.30
2018-11-26T09:14:24.644Z,120.70
2018-11-26T09:15:24.626Z,121.30
2018-11-26T09:16:24.619Z,117.00
2018-11-26T09:17:24.607Z,126.20
2018-11-26T09:18:24.598Z,129.60
2018-11-26T09:19:24.601Z,115.30
2018-11-26T09:20:24.584Z,129.50
2018-11-26T09:21:24.562Z,135.60
2018-11-26T09:22:24.571Z,139.70
2018-11-26T09:23:24.555Z,132.40
2018-11-26T09:24:24.539Z,117.00
2018-11-26T09:25:24.531Z,124.30
2018-11-26T09:26:24.565Z,136.90
2018-11-26T09:27:24.510Z,117.10
2018-11-26T09:28:24.501Z,135.40
2018-11-26T09:29:24.490Z,150.80
2018-11-26T09:30:24.480Z,117.20
2018-11-26T09:31:24.472Z,138.10
2018-11-26T09:32:24.499Z,141.60
2018-11-26T09:33:24.452Z,126.30
2018-11-26T09:34:24.467Z,130.10
2018-11-26T09:35:24.433Z,127.40
2018-11-26T09:36:24.446Z,123.00
2018-11-26T09:37:24.411Z,124.20
2018-11-26T09:38:24.405Z,135.50
2018-11-26T09:39:24.402Z,106.40
2018-11-26T09:40:24.381Z,136.50
2018-11-26T09:41:24.369Z,124.40
2018-11-26T09:42:24.388Z,147.10
2018-11-26T09:43:24.357Z,128.60
2018-11-26T09:44:24.344Z,130.80
2018-11-26T09:45:24.333Z,140.10
2018-11-26T09:46:24.322Z,142.20
2018-11-26T09:47:24.316Z,147.10
2018-11-26T09:48:24.322Z,138.60
2018-11-26T09:49:24.296Z,147.20
2018-11-26T09:50:24.280Z,147.80
2018-11-26T09:51:24.292Z,148.60
2018-11-26T09:52:24.266Z,138.40
2018-11-26T09:53:24.256Z,144.70
2018-11-26T09:54:26.073Z,148.60
2018-11-26T09:55:24.319Z,162.80
2018-11-26T09:56:24.228Z,151.40
2018-11-26T09:57:24.217Z,140.10
2018-11-26T09:58:24.207Z,120.50
2018-11-26T09:59:24.240Z,139.90
2018-11-26T10:00:24.185Z,132.90
2018-11-26T10:01:24.174Z,148.40
2018-11-26T10:02:24.225Z,129.60
2018-11-26T10:03:24.309Z,150.80
2018-11-26T10:04:24.149Z,151.30
2018-11-26T10:05:24.137Z,136.20
2018-11-26T10:06:24.129Z,150.80
2018-11-26T10:07:24.120Z,170.60
2018-11-26T10:08:24.257Z,172.40
2018-11-26T10:09:24.296Z,149.30
2018-11-26T10:10:24.277Z,135.40
2018-11-26T10:11:24.135Z,144.30
2018-11-26T10:12:24.069Z,143.10
2018-11-26T10:13:24.085Z,142.90
2018-11-26T10:14:24.052Z,157.20
2018-11-26T10:15:24.044Z,149.30
2018-11-26T10:16:24.028Z,156.80
2018-11-26T10:17:24.020Z,169.80
2018-11-26T10:18:24.010Z,176.80
2018-11-26T10:19:24.001Z,138.80
2018-11-26T10:20:23.990Z,161.00
2018-11-26T10:21:23.983Z,159.30
2018-11-26T10:22:23.971Z,160.50
2018-11-26T10:23:23.959Z,148.20
2018-11-26T10:24:23.956Z,157.20
2018-11-26T10:25:23.959Z,150.80
2018-11-26T10:26:23.930Z,153.80
2018-11-26T10:27:23.921Z,150.30
2018-11-26T10:28:23.911Z,156.20
2018-11-26T10:29:23.903Z,148.10
2018-11-26T10:30:23.894Z,158.10
2018-11-26T10:31:23.879Z,138.30
2018-11-26T10:32:23.918Z,137.90
2018-11-26T10:33:23.863Z,154.60
2018-11-26T10:34:23.865Z,169.30
2018-11-26T10:35:24.117Z,160.40
2018-11-26T10:36:23.877Z,160.50
2018-11-26T10:37:23.827Z,165.70
2018-11-26T10:38:23.814Z,175.00
2018-11-26T10:39:23.821Z,178.20
2018-11-26T10:40:23.793Z,191.50
2018-11-26T10:41:23.781Z,192.00
2018-11-26T10:42:23.771Z,188.40
2018-11-26T10:43:23.775Z,193.70
2018-11-26T10:44:23.754Z,206.00
2018-11-26T10:45:23.785Z,152.40
2018-11-26T10:46:23.749Z,142.00
2018-11-26T10:47:23.724Z,170.00
2018-11-26T10:48:23.708Z,174.30
2018-11-26T10:49:23.709Z,160.10
2018-11-26T10:50:23.690Z,172.70
2018-11-26T10:51:23.677Z,178.40
2018-11-26T10:52:23.690Z,184.00
2018-11-26T10:53:23.658Z,189.80
2018-11-26T10:54:23.660Z,189.20
2018-11-26T10:55:23.636Z,168.60
2018-11-26T10:56:23.627Z,166.40
2018-11-26T10:57:23.635Z,175.20
2018-11-26T10:58:23.621Z,166.70
2018-11-26T10:59:23.622Z,179.10
2018-11-26T11:00:23.675Z,189.60
2018-11-26T11:01:23.579Z,185.90
2018-11-26T11:02:23.566Z,181.40
2018-11-26T11:03:23.934Z,139.90
2018-11-26T11:04:23.561Z,123.30
2018-11-26T11:05:23.557Z,134.80
2018-11-26T11:06:23.526Z,162.30
2018-11-26T11:07:23.526Z,177.10
2018-11-26T11:08:23.886Z,156.60
2018-11-26T11:09:23.500Z,184.10
2018-11-26T11:10:23.489Z,155.30
2018-11-26T11:11:23.873Z,179.90
2018-11-26T11:12:23.471Z,180.10
2018-11-26T11:13:23.464Z,164.80
2018-11-26T11:14:23.444Z,192.10
2018-11-26T11:15:23.435Z,200.50
2018-11-26T11:16:23.450Z,167.60
2018-11-26T11:17:23.420Z,185.00
2018-11-26T11:18:23.418Z,174.90
2018-11-26T11:19:23.410Z,159.00
2018-11-26T11:20:23.389Z,198.40
2018-11-26T11:21:23.392Z,186.40
2018-11-26T11:22:23.365Z,189.10
2018-11-26T11:23:23.355Z,164.20
2018-11-26T11:24:23.344Z,202.20
2018-11-26T11:25:23.335Z,193.40
2018-11-26T11:26:23.490Z,196.30
2018-11-26T11:27:23.407Z,172.00
2018-11-26T11:28:25.143Z,161.80
2018-11-26T11:29:23.524Z,160.00
2018-11-26T11:30:23.401Z,161.00
2018-11-26T11:31:23.397Z,156.70
2018-11-26T11:32:23.378Z,160.30
2018-11-26T11:34:24.220Z,168.70
2018-11-26T11:35:23.362Z,165.70
2018-11-26T11:36:23.350Z,208.00
2018-11-26T11:37:23.323Z,190.60
2018-11-26T11:38:23.336Z,214.50
2018-11-26T11:39:23.534Z,190.90
2018-11-26T11:40:23.341Z,219.40
2018-11-26T11:41:23.890Z,190.20
2018-11-26T11:42:23.700Z,177.30
2018-11-26T11:43:23.534Z,214.20
2018-11-26T11:44:23.154Z,227.10
2018-11-26T11:45:23.241Z,233.50
2018-11-26T11:46:23.580Z,244.30
2018-11-26T11:47:23.204Z,208.90
2018-11-26T11:48:23.094Z,215.00
2018-11-26T11:49:23.273Z,233.70
2018-11-26T11:50:23.203Z,238.20
2018-11-26T11:51:23.207Z,214.70
2018-11-26T11:52:23.199Z,219.10
2018-11-26T11:53:23.297Z,220.70
2018-11-26T11:54:23.752Z,211.20
2018-11-26T11:55:23.300Z,217.30
2018-11-26T11:56:23.173Z,228.90
2018-11-26T11:57:29.456Z,226.90
2018-11-26T11:58:23.241Z,227.80
2018-11-26T11:59:23.096Z,204.60
2018-11-26T12:00:23.311Z,199.80
2018-11-26T12:01:23.150Z,199.80
2018-11-26T12:02:23.170Z,172.00
2018-11-26T12:03:23.039Z,201.70
2018-11-26T12:04:22.968Z,195.00
2018-11-26T12:05:23.083Z,197.50
2018-11-26T12:06:23.080Z,208.50
2018-11-26T12:07:23.114Z,173.30
2018-11-26T12:08:23.164Z,170.20
2018-11-26T12:09:23.111Z,187.60
2018-11-26T12:10:23.106Z,181.80
2018-11-26T12:11:23.171Z,188.50
2018-11-26T12:12:23.086Z,203.20
2018-11-26T12:13:22.989Z,131.30
2018-11-26T12:14:22.981Z,179.20
2018-11-26T12:15:22.942Z,157.40
2018-11-26T12:16:22.917Z,165.60
2018-11-26T12:17:22.930Z,191.10
2018-11-26T12:18:22.909Z,202.80
2018-11-26T12:19:22.865Z,173.60
2018-11-26T12:20:22.892Z,155.30
2018-11-26T12:21:23.139Z,148.00
2018-11-26T12:22:22.746Z,145.70
2018-11-26T12:23:22.851Z,181.10
2018-11-26T12:24:22.871Z,191.60
2018-11-26T12:25:23.478Z,203.80
2018-11-26T12:26:22.860Z,196.30
2018-11-26T12:27:22.855Z,181.60
2018-11-26T12:28:24.596Z,157.90
2018-11-26T12:29:22.671Z,201.90
2018-11-26T12:30:22.769Z,168.50
2018-11-26T12:31:22.769Z,213.30
2018-11-26T12:32:47.590Z,157.30
2018-11-26T12:33:22.700Z,154.00
2018-11-26T12:34:22.644Z,134.10
2018-11-26T12:35:22.636Z,154.20
2018-11-26T12:36:22.598Z,188.10
2018-11-26T12:37:22.589Z,181.00